createdAt,value
2022-10-21T00:00:31.982Z,66.31
2022-10-21T00:03:03.904Z,67.64
2022-10-21T00:05:36.029Z,66.70
2022-10-21T00:08:10.836Z,66.57
2022-10-21T00:10:42.410Z,66.58
2022-10-21T00:13:15.693Z,67.02
2022-10-21T00:15:48.885Z,66.23
2022-10-21T00:18:23.310Z,65.95
2022-10-21T00:20:55.145Z,67.29
2022-10-21T00:23:27.569Z,68.01
2022-10-21T00:26:02.597Z,68.23
2022-10-21T00:28:38.060Z,68.77
2022-10-21T00:31:13.318Z,68.69
2022-10-21T00:33:46.057Z,68.56
2022-10-21T00:36:17.931Z,68.90
2022-10-21T00:38:51.699Z,68.47
2022-10-21T00:41:26.056Z,68.82
2022-10-21T00:44:03.049Z,69.39
2022-10-21T00:46:47.317Z,69.12
2022-10-21T00:49:27.594Z,70.32
2022-10-21T00:52:03.631Z,70.56
2022-10-21T00:54:39.748Z,71.09
2022-10-21T00:57:12.610Z,70.61
2022-10-21T00:59:49.336Z,71.00
2022-10-21T01:02:23.193Z,71.68
2022-10-21T01:04:58.128Z,71.98
2022-10-21T01:07:34.421Z,72.22
2022-10-21T01:10:13.219Z,72.00
2022-10-21T01:12:59.790Z,72.03
2022-10-21T01:15:43.087Z,71.34
2022-10-21T01:18:26.601Z,72.43
2022-10-21T01:21:24.863Z,74.37
2022-10-21T01:24:37.311Z,75.07
2022-10-21T01:27:39.424Z,74.59
2022-10-21T01:30:36.839Z,74.86
2022-10-21T01:33:33.851Z,74.60
2022-10-21T01:36:13.304Z,74.30
2022-10-21T01:38:51.327Z,73.97
2022-10-21T01:41:32.919Z,74.10
2022-10-21T01:44:12.307Z,74.67
2022-10-21T01:46:50.508Z,74.16
2022-10-21T01:49:32.260Z,74.89
2022-10-21T01:52:06.382Z,74.34
2022-10-21T01:54:45.152Z,74.70
2022-10-21T01:57:23.530Z,75.13
2022-10-21T02:00:03.997Z,75.12
2022-10-21T02:02:42.752Z,75.32
2022-10-21T02:05:21.011Z,75.47
2022-10-21T02:07:55.509Z,75.76
2022-10-21T02:10:35.503Z,76.18
2022-10-21T02:13:12.973Z,75.90
2022-10-21T02:15:46.795Z,76.40
2022-10-21T02:18:25.595Z,76.66
2022-10-21T02:21:03.362Z,76.38
2022-10-21T02:23:43.188Z,76.74
2022-10-21T02:26:16.522Z,76.08
2022-10-21T02:28:52.365Z,75.75
2022-10-21T02:31:49.321Z,74.04
2022-10-21T02:34:31.983Z,74.29
2022-10-21T02:37:18.057Z,75.16
2022-10-21T02:40:00.124Z,73.95
2022-10-21T02:42:40.175Z,74.59
2022-10-21T02:45:13.699Z,73.84
2022-10-21T02:47:49.678Z,73.23
2022-10-21T02:50:26.703Z,72.67
2022-10-21T02:53:01.724Z,72.28
2022-10-21T02:55:33.942Z,71.14
2022-10-21T02:58:06.168Z,71.75
2022-10-21T03:00:38.851Z,70.04
2022-10-21T03:03:11.496Z,70.11
2022-10-21T03:05:45.309Z,69.78
2022-10-21T03:08:20.200Z,69.05
2022-10-21T03:10:55.588Z,68.67
2022-10-21T03:13:31.005Z,67.53
2022-10-21T03:16:04.113Z,67.07
2022-10-21T03:18:36.645Z,67.75
2022-10-21T03:21:12.559Z,67.07
2022-10-21T03:23:47.146Z,67.31
2022-10-21T03:26:22.332Z,68.27
2022-10-21T03:28:57.657Z,65.14
2022-10-21T03:31:32.830Z,64.86
2022-10-21T03:34:07.406Z,63.72
2022-10-21T03:36:43.639Z,62.11
2022-10-21T03:39:16.269Z,61.14
2022-10-21T03:41:51.202Z,59.85
2022-10-21T03:44:26.384Z,61.27
2022-10-21T03:46:58.528Z,59.66
2022-10-21T03:49:33.172Z,61.69
2022-10-21T03:52:12.128Z,61.60
2022-10-21T03:54:47.670Z,63.01
2022-10-21T03:57:21.286Z,62.83
2022-10-21T03:59:53.637Z,59.41
2022-10-21T04:02:29.113Z,59.38
2022-10-21T04:05:04.191Z,59.93
2022-10-21T04:07:41.734Z,61.80
2022-10-21T04:10:16.590Z,62.16
2022-10-21T04:12:48.731Z,60.20
2022-10-21T04:15:25.047Z,60.56
2022-10-21T04:17:59.688Z,62.77
2022-10-21T04:20:31.893Z,61.17
2022-10-21T04:23:08.921Z,63.15
2022-10-21T04:25:47.118Z,61.36
2022-10-21T04:28:21.840Z,60.53
2022-10-21T04:30:57.520Z,58.95
2022-10-21T04:33:29.397Z,59.77
2022-10-21T04:36:05.530Z,60.32
2022-10-21T04:38:42.124Z,61.24
2022-10-21T04:41:18.927Z,60.67
2022-10-21T04:44:01.185Z,60.09
2022-10-21T04:46:39.885Z,61.01
2022-10-21T04:49:11.714Z,61.45
2022-10-21T04:51:46.946Z,61.35
2022-10-21T04:54:24.595Z,61.66
2022-10-21T04:56:58.622Z,61.87
2022-10-21T04:59:33.767Z,60.10
2022-10-21T05:02:09.509Z,59.05
2022-10-21T05:04:45.155Z,59.04
2022-10-21T05:07:19.983Z,59.52
2022-10-21T05:09:56.241Z,58.37
2022-10-21T05:12:31.065Z,58.29
2022-10-21T05:15:07.243Z,62.07
2022-10-21T05:17:42.918Z,58.16
2022-10-21T05:20:18.331Z,58.91
2022-10-21T05:22:54.940Z,61.42
2022-10-21T05:25:34.171Z,59.57
2022-10-21T05:28:10.163Z,59.08
2022-10-21T05:30:45.723Z,59.97
2022-10-21T05:33:21.155Z,57.94
2022-10-21T05:36:03.999Z,58.69
2022-10-21T05:38:37.192Z,58.09
2022-10-21T05:41:13.939Z,55.29
2022-10-21T05:43:48.521Z,56.98
2022-10-21T05:46:23.627Z,56.80
2022-10-21T05:48:58.242Z,55.99
2022-10-21T05:51:30.139Z,55.35
2022-10-21T05:54:06.916Z,55.18
2022-10-21T05:56:43.989Z,55.10
2022-10-21T05:59:19.646Z,53.58
2022-10-21T06:01:54.265Z,53.44
2022-10-21T06:04:29.234Z,53.00
2022-10-21T06:07:04.051Z,54.58
2022-10-21T06:09:39.189Z,54.27
2022-10-21T06:12:15.936Z,53.59
2022-10-21T06:14:52.135Z,54.52
2022-10-21T06:17:24.608Z,55.59
2022-10-21T06:19:59.350Z,55.45
2022-10-21T06:22:31.863Z,54.70
2022-10-21T06:25:07.736Z,54.04
2022-10-21T06:27:44.325Z,54.57
2022-10-21T06:30:19.662Z,52.93
2022-10-21T06:32:55.708Z,52.66
2022-10-21T06:35:31.759Z,55.11
2022-10-21T06:38:07.357Z,52.97
2022-10-21T06:40:42.339Z,52.53
2022-10-21T06:43:18.843Z,54.07
2022-10-21T06:45:53.293Z,51.25
2022-10-21T06:48:28.847Z,51.54
2022-10-21T06:51:02.489Z,52.32
2022-10-21T06:53:38.091Z,53.12
2022-10-21T06:56:13.459Z,50.60
2022-10-21T06:58:52.207Z,52.38
2022-10-21T07:01:40.999Z,50.90
2022-10-21T07:04:24.248Z,52.23
2022-10-21T07:06:56.894Z,52.72
2022-10-21T07:09:29.144Z,50.32
2022-10-21T07:12:01.179Z,50.97
2022-10-21T07:14:35.583Z,50.73
2022-10-21T07:17:07.842Z,50.13
2022-10-21T07:19:40.720Z,48.38
2022-10-21T07:22:12.647Z,50.26
2022-10-21T07:24:44.810Z,49.44
2022-10-21T07:27:16.978Z,48.87
2022-10-21T07:29:51.874Z,48.69
2022-10-21T07:32:24.346Z,48.40
2022-10-21T07:34:56.835Z,49.17
2022-10-21T07:37:29.545Z,48.07
2022-10-21T07:40:02.351Z,50.45
2022-10-21T07:42:33.983Z,50.69
2022-10-21T07:45:07.787Z,49.28
2022-10-21T07:47:40.211Z,48.47
2022-10-21T07:50:13.638Z,49.28
2022-10-21T07:52:55.968Z,45.81
2022-10-21T07:55:36.322Z,47.21
2022-10-21T07:58:09.070Z,46.67
2022-10-21T08:00:46.997Z,46.28
2022-10-21T08:03:18.975Z,46.44
2022-10-21T08:05:51.139Z,47.90
2022-10-21T08:08:24.085Z,53.23
2022-10-21T08:10:57.243Z,50.72
2022-10-21T08:13:29.432Z,47.53
2022-10-21T08:16:02.850Z,48.57
2022-10-21T08:18:36.070Z,50.66
2022-10-21T08:21:09.717Z,47.68
2022-10-21T08:23:42.147Z,47.79
2022-10-21T08:26:17.482Z,46.80
2022-10-21T08:28:50.108Z,46.04
2022-10-21T08:31:25.907Z,45.61
2022-10-21T08:34:03.828Z,44.84
2022-10-21T08:36:36.386Z,46.92
2022-10-21T08:39:08.739Z,45.83
2022-10-21T08:42:04.893Z,44.86
2022-10-21T08:44:48.602Z,44.84
2022-10-21T08:47:39.303Z,44.99
2022-10-21T08:50:17.062Z,44.38
2022-10-21T08:52:52.444Z,42.86
2022-10-21T08:55:27.561Z,46.86
2022-10-21T08:57:59.693Z,44.62
2022-10-21T09:00:35.974Z,44.20
2022-10-21T09:03:22.338Z,43.19
2022-10-21T09:06:20.190Z,42.57
2022-10-21T09:09:04.287Z,46.62
2022-10-21T09:11:50.022Z,45.43
2022-10-21T09:15:10.357Z,43.11
2022-10-21T09:18:11.947Z,42.69
2022-10-21T09:20:59.489Z,41.23
2022-10-21T09:23:44.498Z,41.64
2022-10-21T09:26:30.965Z,41.98
2022-10-21T09:29:06.523Z,41.51
2022-10-21T09:31:38.905Z,40.11
2022-10-21T09:34:21.852Z,41.04
2022-10-21T09:36:57.333Z,41.32
2022-10-21T09:39:43.500Z,42.94
2022-10-21T09:42:35.257Z,41.53
2022-10-21T09:45:17.441Z,40.14
2022-10-21T09:47:55.031Z,40.73
2022-10-21T09:50:28.253Z,41.67
2022-10-21T09:53:11.495Z,41.14
2022-10-21T09:55:44.483Z,45.46
2022-10-21T09:58:29.271Z,45.36
2022-10-21T10:01:01.839Z,42.19
2022-10-21T10:03:37.221Z,41.81
2022-10-21T10:06:09.799Z,44.29
2022-10-21T10:08:45.717Z,42.13
2022-10-21T10:11:23.065Z,39.77
2022-10-21T10:13:56.608Z,43.54
2022-10-21T10:16:32.231Z,44.29
2022-10-21T10:19:22.279Z,40.51
2022-10-21T10:22:12.505Z,44.23
2022-10-21T10:24:46.937Z,41.82
2022-10-21T10:27:24.785Z,49.57
2022-10-21T10:30:00.179Z,42.50
2022-10-21T10:32:37.495Z,42.71
2022-10-21T10:35:24.832Z,45.78
2022-10-21T10:37:59.893Z,46.97
2022-10-21T10:40:41.027Z,42.28
2022-10-21T10:43:27.872Z,43.43
2022-10-21T10:46:03.665Z,45.97
2022-10-21T10:48:41.949Z,47.65
2022-10-21T10:51:29.588Z,42.72
2022-10-21T10:54:07.315Z,44.58
2022-10-21T10:56:47.637Z,43.42
2022-10-21T10:59:27.772Z,45.87
2022-10-21T11:02:11.603Z,44.19
2022-10-21T11:04:49.839Z,46.00
2022-10-21T11:07:31.775Z,49.63
2022-10-21T11:10:10.894Z,43.39
2022-10-21T11:12:44.114Z,52.00
2022-10-21T11:15:18.478Z,44.14
2022-10-21T11:18:07.409Z,45.67
2022-10-21T11:21:01.803Z,45.13
2022-10-21T11:24:08.688Z,48.24
2022-10-21T11:26:47.896Z,54.12
2022-10-21T11:29:44.391Z,56.61
2022-10-21T11:32:30.895Z,59.81
2022-10-21T11:35:14.601Z,60.25
2022-10-21T11:38:05.123Z,59.62
2022-10-21T11:40:43.842Z,59.40
2022-10-21T11:43:37.149Z,61.46
2022-10-21T11:46:20.218Z,57.73
2022-10-21T11:49:11.547Z,58.70
2022-10-21T11:51:55.077Z,62.23
2022-10-21T11:55:09.529Z,61.64
2022-10-21T11:57:54.961Z,60.79
2022-10-21T12:00:28.866Z,63.11
2022-10-21T12:03:21.924Z,62.65
2022-10-21T12:06:04.093Z,63.14
2022-10-21T12:08:45.226Z,62.10
2022-10-21T12:11:23.356Z,61.68
2022-10-21T12:13:59.127Z,60.99
2022-10-21T12:16:35.830Z,61.66
2022-10-21T12:19:14.321Z,60.62
2022-10-21T12:21:48.972Z,61.26
2022-10-21T12:24:31.461Z,62.03
2022-10-21T12:27:13.759Z,61.82
2022-10-21T12:30:03.209Z,63.66
2022-10-21T12:32:43.624Z,63.29
2022-10-21T12:35:27.880Z,62.96
2022-10-21T12:38:23.526Z,62.21
2022-10-21T12:41:29.345Z,60.06
2022-10-21T12:44:23.889Z,60.17
2022-10-21T12:47:02.904Z,59.82
2022-10-21T12:49:38.136Z,61.04
2022-10-21T12:52:15.608Z,61.57
2022-10-21T12:54:58.418Z,61.08
2022-10-21T12:57:34.425Z,61.05
2022-10-21T13:00:40.670Z,61.02
2022-10-21T13:03:15.188Z,63.67
2022-10-21T13:06:08.702Z,63.71
2022-10-21T13:08:56.643Z,64.45
2022-10-21T13:11:43.166Z,63.84
2022-10-21T13:14:36.134Z,64.65
2022-10-21T13:17:49.681Z,64.39
2022-10-21T13:20:56.823Z,64.33
2022-10-21T13:23:40.364Z,62.81
2022-10-21T13:26:25.619Z,62.13
2022-10-21T13:29:06.657Z,61.78
2022-10-21T13:31:39.200Z,64.58
2022-10-21T13:34:30.544Z,64.46
2022-10-21T13:37:02.803Z,64.06
2022-10-21T13:39:37.940Z,64.03
2022-10-21T13:42:18.180Z,64.38
2022-10-21T13:44:57.366Z,64.67
2022-10-21T13:47:33.394Z,64.54
2022-10-21T13:50:27.421Z,64.67
2022-10-21T13:52:59.356Z,64.43
2022-10-21T13:55:32.062Z,63.51
2022-10-21T13:58:05.587Z,63.43
2022-10-21T14:00:37.873Z,63.42
2022-10-21T14:03:10.404Z,63.51
2022-10-21T14:05:49.492Z,62.27
2022-10-21T14:08:28.934Z,62.80
2022-10-21T14:11:05.261Z,62.75
2022-10-21T14:13:39.933Z,62.75
2022-10-21T14:16:13.975Z,62.92
2022-10-21T14:18:51.490Z,62.44
2022-10-21T14:21:27.167Z,63.24
2022-10-21T14:23:59.449Z,63.39
2022-10-21T14:26:35.003Z,64.15
2022-10-21T14:29:09.129Z,64.06
2022-10-21T14:31:44.232Z,63.41
2022-10-21T14:34:28.074Z,62.42
2022-10-21T14:37:11.080Z,62.47
2022-10-21T14:39:44.709Z,62.99
2022-10-21T14:42:20.766Z,62.90
2022-10-21T14:45:01.481Z,62.40
2022-10-21T14:47:34.701Z,62.56
2022-10-21T14:50:08.532Z,62.31
2022-10-21T14:52:49.042Z,60.75
2022-10-21T14:55:30.666Z,61.01
2022-10-21T14:58:11.744Z,61.88
2022-10-21T15:00:46.530Z,60.80
2022-10-21T15:03:18.813Z,60.53
2022-10-21T15:05:50.807Z,61.03
2022-10-21T15:08:33.601Z,60.97
2022-10-21T15:11:24.890Z,61.34
2022-10-21T15:14:02.081Z,61.65
2022-10-21T15:16:36.538Z,61.49
2022-10-21T15:19:12.427Z,62.05
2022-10-21T15:21:51.523Z,61.84
2022-10-21T15:24:28.460Z,62.06
2022-10-21T15:27:02.933Z,62.89
2022-10-21T15:29:39.430Z,63.09
2022-10-21T15:32:16.676Z,63.03
2022-10-21T15:34:48.866Z,63.79
2022-10-21T15:37:21.619Z,63.72
2022-10-21T15:39:53.643Z,63.96
2022-10-21T15:42:26.378Z,64.53
2022-10-21T15:44:58.429Z,64.25
2022-10-21T15:47:33.922Z,64.81
2022-10-21T15:50:16.127Z,65.12
2022-10-21T15:52:48.219Z,65.40
2022-10-21T15:55:20.490Z,65.38
2022-10-21T15:57:53.483Z,66.36
2022-10-21T16:00:27.042Z,66.11
2022-10-21T16:03:01.862Z,66.08
2022-10-21T16:05:34.857Z,66.16
2022-10-21T16:08:07.150Z,66.52
2022-10-21T16:10:43.040Z,66.61
2022-10-21T16:13:14.885Z,66.83
2022-10-21T16:15:47.181Z,66.75
2022-10-21T16:18:20.757Z,66.93
2022-10-21T16:20:55.464Z,67.58
2022-10-21T16:23:28.319Z,67.72
2022-10-21T16:26:00.810Z,68.08
2022-10-21T16:28:32.988Z,67.82
2022-10-21T16:31:07.327Z,67.38
2022-10-21T16:33:41.129Z,67.93
2022-10-21T16:36:19.366Z,67.85
2022-10-21T16:38:52.573Z,68.20
2022-10-21T16:41:29.745Z,68.74
2022-10-21T16:44:02.535Z,68.41
2022-10-21T16:46:38.198Z,67.83
2022-10-21T16:49:16.935Z,68.18
2022-10-21T16:51:49.303Z,68.15
2022-10-21T16:54:22.504Z,65.89
2022-10-21T16:56:55.624Z,65.48
2022-10-21T16:59:28.400Z,64.15
2022-10-21T17:02:02.073Z,62.52
2022-10-21T17:04:35.505Z,62.49
2022-10-21T17:07:07.807Z,62.46
2022-10-21T17:09:39.712Z,62.09
2022-10-21T17:12:14.726Z,61.10
2022-10-21T17:14:46.752Z,60.79
2022-10-21T17:17:20.462Z,61.09
2022-10-21T17:19:54.885Z,61.02
2022-10-21T17:22:27.148Z,61.26
2022-10-21T17:24:59.238Z,60.91
2022-10-21T17:27:31.528Z,60.44
2022-10-21T17:30:03.536Z,61.20
2022-10-21T17:32:36.417Z,61.38
2022-10-21T17:35:18.544Z,61.46
2022-10-21T17:37:52.306Z,61.48
2022-10-21T17:40:26.118Z,62.19
2022-10-21T17:42:59.875Z,59.91
2022-10-21T17:45:31.825Z,59.85
2022-10-21T17:48:04.475Z,59.34
2022-10-21T17:50:40.014Z,57.97
2022-10-21T17:53:12.696Z,56.97
2022-10-21T17:55:44.620Z,56.25
2022-10-21T17:58:16.610Z,55.53
2022-10-21T18:00:49.076Z,55.81
2022-10-21T18:03:21.234Z,56.79
2022-10-21T18:05:57.024Z,58.03
2022-10-21T18:08:29.430Z,58.93
2022-10-21T18:11:02.220Z,57.75
2022-10-21T18:13:35.697Z,58.95
2022-10-21T18:16:08.838Z,60.02
2022-10-21T18:21:19.635Z,60.09
2022-10-21T18:23:54.264Z,60.50
2022-10-21T18:26:29.917Z,60.54
2022-10-21T18:29:03.624Z,60.43
2022-10-21T18:31:37.801Z,61.54
2022-10-21T18:34:11.769Z,62.06
2022-10-21T18:36:45.623Z,61.82
2022-10-21T18:39:17.828Z,62.05
2022-10-21T18:41:50.012Z,62.44
2022-10-21T18:44:22.668Z,63.44
2022-10-21T18:46:56.172Z,63.20
2022-10-21T18:49:28.695Z,62.45
2022-10-21T18:52:02.389Z,62.16
2022-10-21T18:54:35.278Z,61.74
2022-10-21T18:57:11.352Z,62.37
2022-10-21T18:59:43.389Z,61.99
2022-10-21T19:02:23.419Z,62.13
2022-10-21T19:04:58.299Z,63.40
2022-10-21T19:07:35.302Z,63.59
2022-10-21T19:10:07.900Z,63.54
2022-10-21T19:12:40.264Z,64.19
2022-10-21T19:15:13.776Z,63.86
2022-10-21T19:17:46.433Z,64.30
2022-10-21T19:20:19.299Z,64.52
2022-10-21T19:22:53.627Z,64.54
2022-10-21T19:25:26.040Z,64.61
2022-10-21T19:27:58.108Z,63.85
2022-10-21T19:30:31.305Z,64.83
2022-10-21T19:33:04.009Z,64.46
2022-10-21T19:35:35.913Z,65.22
2022-10-21T19:38:15.524Z,65.35
2022-10-21T19:40:53.977Z,65.96
2022-10-21T19:43:26.460Z,66.62
2022-10-21T19:45:59.966Z,66.94
2022-10-21T19:48:32.300Z,66.52
2022-10-21T19:51:04.587Z,66.55
2022-10-21T19:53:38.515Z,66.36
2022-10-21T19:56:11.904Z,65.65
2022-10-21T19:58:48.092Z,65.99
2022-10-21T20:01:25.095Z,65.96
2022-10-21T20:03:57.987Z,67.63
2022-10-21T20:06:32.868Z,66.54
2022-10-21T20:09:08.732Z,66.79
2022-10-21T20:11:41.656Z,66.66
2022-10-21T20:14:16.005Z,67.97
2022-10-21T20:16:51.370Z,67.28
2022-10-21T20:19:23.829Z,67.68
2022-10-21T20:21:56.206Z,67.67
2022-10-21T20:24:30.515Z,67.83
2022-10-21T20:27:02.600Z,67.74
2022-10-21T20:29:34.941Z,68.16
2022-10-21T20:32:07.337Z,67.76
2022-10-21T20:34:41.249Z,68.88
2022-10-21T20:37:13.688Z,68.56
2022-10-21T20:39:47.437Z,68.35
2022-10-21T20:42:19.508Z,68.47
2022-10-21T20:44:52.273Z,69.04
2022-10-21T20:47:27.543Z,68.75
2022-10-21T20:50:02.800Z,68.99
2022-10-21T20:52:35.222Z,68.37
2022-10-21T20:55:10.072Z,69.98
2022-10-21T20:57:42.639Z,70.19
2022-10-21T21:00:19.506Z,68.73
2022-10-21T21:02:51.781Z,69.46
2022-10-21T21:05:23.964Z,70.19
2022-10-21T21:07:56.004Z,70.12
2022-10-21T21:10:29.867Z,66.44
2022-10-21T21:13:02.265Z,67.54
2022-10-21T21:15:34.569Z,67.14
2022-10-21T21:18:13.004Z,68.98
2022-10-21T21:20:45.314Z,69.46
2022-10-21T21:23:17.798Z,68.43
2022-10-21T21:25:51.806Z,68.21
2022-10-21T21:28:24.247Z,68.39
2022-10-21T21:30:56.363Z,68.64
2022-10-21T21:33:28.683Z,68.91
2022-10-21T21:36:01.344Z,68.56
2022-10-21T21:38:35.242Z,68.85
2022-10-21T21:41:10.563Z,68.68
2022-10-21T21:43:45.167Z,68.35
2022-10-21T21:46:24.209Z,68.81
2022-10-21T21:49:00.997Z,69.25
2022-10-21T21:51:39.113Z,69.60
2022-10-21T21:54:11.428Z,69.64
2022-10-21T21:56:45.455Z,68.97
2022-10-21T21:59:17.722Z,68.74
2022-10-21T22:01:50.041Z,68.96
2022-10-21T22:04:22.119Z,68.05
2022-10-21T22:06:54.536Z,68.43
2022-10-21T22:09:28.397Z,69.94
2022-10-21T22:12:02.131Z,67.77
2022-10-21T22:14:34.859Z,67.33
2022-10-21T22:17:06.697Z,68.74
2022-10-21T22:19:39.200Z,68.10
2022-10-21T22:22:11.099Z,67.76
2022-10-21T22:24:44.271Z,67.30
2022-10-21T22:27:18.316Z,67.57
2022-10-21T22:29:50.966Z,67.44
2022-10-21T22:32:23.231Z,67.88
2022-10-21T22:34:56.083Z,68.56
2022-10-21T22:37:27.898Z,67.79
2022-10-21T22:40:00.246Z,67.53
2022-10-21T22:42:34.406Z,67.76
2022-10-21T22:45:06.633Z,67.12
2022-10-21T22:47:39.246Z,67.71
2022-10-21T22:50:12.679Z,68.50
2022-10-21T22:52:45.526Z,67.72
2022-10-21T22:55:17.990Z,67.56
2022-10-21T22:57:52.092Z,67.05
2022-10-21T23:00:24.633Z,67.48
2022-10-21T23:02:56.680Z,67.38
2022-10-21T23:05:28.931Z,67.39
2022-10-21T23:08:01.026Z,66.94
2022-10-21T23:10:33.569Z,65.02
2022-10-21T23:13:07.953Z,67.40
2022-10-21T23:15:40.433Z,65.97
2022-10-21T23:18:12.621Z,66.48
2022-10-21T23:20:45.233Z,65.99
2022-10-21T23:23:17.161Z,66.43
2022-10-21T23:25:49.577Z,66.38
2022-10-21T23:28:23.374Z,65.51
2022-10-21T23:30:56.208Z,65.28
2022-10-21T23:33:28.869Z,65.46
2022-10-21T23:36:01.084Z,66.14
2022-10-21T23:38:33.646Z,66.05
2022-10-21T23:41:06.250Z,65.91
2022-10-21T23:43:40.265Z,66.74
2022-10-21T23:46:12.386Z,66.68
2022-10-21T23:48:44.957Z,67.20
2022-10-21T23:51:17.228Z,67.05
2022-10-21T23:53:49.734Z,68.29
2022-10-21T23:56:22.531Z,68.37
2022-10-21T23:58:57.193Z,68.09
